createdAt,value
2023-01-30T01:27:09.035Z,0.00
2023-01-30T01:28:08.979Z,0.00
2023-01-30T01:29:08.988Z,0.00
2023-01-30T01:30:08.963Z,0.00
2023-01-30T01:31:09.081Z,0.00
2023-01-30T01:32:09.006Z,0.00
2023-01-30T01:33:08.922Z,0.00
2023-01-30T01:34:08.924Z,0.00
2023-01-30T01:35:08.904Z,0.00
2023-01-30T01:36:08.892Z,0.00
2023-01-30T01:37:08.884Z,0.00
2023-01-30T01:38:13.897Z,0.00
2023-01-30T01:39:08.880Z,0.00
2023-01-30T01:40:08.848Z,0.00
2023-01-30T01:41:08.839Z,0.00
2023-01-30T01:42:10.032Z,0.00
2023-01-30T01:43:08.816Z,0.00
2023-01-30T01:44:08.834Z,0.00
2023-01-30T01:45:08.801Z,0.00
2023-01-30T01:46:08.847Z,0.00
2023-01-30T01:47:08.779Z,0.00
2023-01-30T01:48:08.769Z,0.00
2023-01-30T01:49:13.802Z,0.00
2023-01-30T01:50:08.768Z,0.00
2023-01-30T01:51:08.727Z,0.00
2023-01-30T01:52:08.722Z,0.00
2023-01-30T01:53:08.709Z,0.00
2023-01-30T01:54:08.723Z,0.00
2023-01-30T01:55:08.697Z,0.00
2023-01-30T01:56:08.682Z,0.00
2023-01-30T01:57:08.670Z,0.00
2023-01-30T01:58:08.651Z,0.00
2023-01-30T01:59:08.657Z,0.00
2023-01-30T02:00:13.656Z,0.00
2023-01-30T02:01:08.668Z,0.00
2023-01-30T02:02:08.630Z,0.00
2023-01-30T02:03:08.614Z,0.00
2023-01-30T02:04:08.626Z,0.00
2023-01-30T02:05:08.573Z,0.00
2023-01-30T02:06:08.584Z,0.00
2023-01-30T02:07:08.557Z,0.00
2023-01-30T02:08:08.543Z,0.00
2023-01-30T02:09:08.576Z,0.00
2023-01-30T02:10:08.531Z,0.00
2023-01-30T02:11:13.538Z,0.00
2023-01-30T02:12:08.520Z,0.00
2023-01-30T02:13:08.525Z,0.00
2023-01-30T02:14:08.502Z,0.00
2023-01-30T02:15:08.470Z,0.00
2023-01-30T02:16:08.457Z,0.00
2023-01-30T02:17:08.446Z,0.00
2023-01-30T02:18:08.471Z,0.00
2023-01-30T02:19:08.459Z,0.00
2023-01-30T02:20:08.421Z,0.00
2023-01-30T02:21:08.404Z,0.00
2023-01-30T02:22:13.420Z,0.00
2023-01-30T02:23:08.375Z,0.00
2023-01-30T02:24:08.367Z,0.00
2023-01-30T02:25:08.369Z,0.00
2023-01-30T02:26:08.355Z,0.00
2023-01-30T02:27:08.332Z,0.00
2023-01-30T02:28:08.323Z,0.00
2023-01-30T02:29:08.315Z,0.00
2023-01-30T02:30:08.317Z,0.00
2023-01-30T02:31:08.515Z,0.00
2023-01-30T02:32:08.296Z,0.00
2023-01-30T02:33:13.291Z,0.00
2023-01-30T02:34:08.257Z,0.00
2023-01-30T02:35:08.323Z,0.00
2023-01-30T02:36:08.235Z,0.00
2023-01-30T02:37:08.228Z,0.00
2023-01-30T02:38:08.226Z,0.00
2023-01-30T02:39:08.222Z,0.00
2023-01-30T02:40:08.226Z,0.00
2023-01-30T02:41:08.187Z,0.00
2023-01-30T02:42:08.179Z,0.00
2023-01-30T02:43:08.165Z,0.00
2023-01-30T02:44:13.171Z,0.00
2023-01-30T02:45:08.148Z,0.00
2023-01-30T02:46:08.163Z,0.00
2023-01-30T02:47:08.154Z,0.00
2023-01-30T02:48:08.112Z,0.00
2023-01-30T02:49:08.093Z,0.00
2023-01-30T02:50:08.109Z,0.00
2023-01-30T02:51:08.075Z,0.00
2023-01-30T02:52:08.073Z,0.00
2023-01-30T02:53:08.056Z,0.00
2023-01-30T02:54:08.045Z,0.00
2023-01-30T02:55:13.068Z,0.00
2023-01-30T02:56:08.048Z,0.00
2023-01-30T02:57:08.013Z,0.00
2023-01-30T02:58:07.996Z,0.00
2023-01-30T02:59:07.982Z,0.00
2023-01-30T03:00:07.985Z,0.00
2023-01-30T03:01:08.014Z,0.00
2023-01-30T03:02:08.012Z,0.00
2023-01-30T03:03:07.943Z,0.00
2023-01-30T03:04:07.945Z,0.00
2023-01-30T03:05:07.932Z,0.00
2023-01-30T03:06:12.934Z,0.00
2023-01-30T03:07:07.901Z,0.00
2023-01-30T03:08:07.888Z,0.00
2023-01-30T03:09:07.878Z,0.00
2023-01-30T03:10:07.881Z,0.00
2023-01-30T03:11:07.864Z,0.00
2023-01-30T03:12:07.861Z,0.00
2023-01-30T03:13:07.837Z,0.00
2023-01-30T03:14:07.821Z,0.00
2023-01-30T03:15:07.840Z,0.00
2023-01-30T03:16:07.851Z,0.00
2023-01-30T03:17:12.812Z,0.00
2023-01-30T03:18:07.785Z,0.00
2023-01-30T03:19:07.763Z,0.00
2023-01-30T03:20:07.756Z,0.00
2023-01-30T03:21:07.751Z,0.00
2023-01-30T03:22:07.740Z,0.00
2023-01-30T03:23:07.769Z,0.00
2023-01-30T03:24:07.714Z,0.00
2023-01-30T03:25:07.703Z,0.00
2023-01-30T03:26:07.720Z,0.00
2023-01-30T03:27:07.686Z,0.00
2023-01-30T03:28:12.689Z,0.00
2023-01-30T03:29:07.660Z,0.00
2023-01-30T03:30:07.643Z,0.00
2023-01-30T03:31:07.763Z,0.00
2023-01-30T03:32:07.623Z,0.00
2023-01-30T03:33:07.622Z,0.00
2023-01-30T03:34:07.605Z,0.00
2023-01-30T03:35:07.612Z,0.00
2023-01-30T03:36:07.591Z,0.00
2023-01-30T03:37:07.572Z,0.00
2023-01-30T03:38:07.586Z,0.00
2023-01-30T03:39:12.574Z,0.00
2023-01-30T03:40:07.534Z,0.00
2023-01-30T03:41:07.552Z,0.00
2023-01-30T03:42:07.520Z,0.00
2023-01-30T03:43:07.501Z,0.00
2023-01-30T03:44:07.514Z,0.00
2023-01-30T03:45:07.483Z,0.00
2023-01-30T03:46:07.570Z,0.00
2023-01-30T03:47:07.468Z,0.00
2023-01-30T03:48:07.457Z,0.00
2023-01-30T03:49:07.444Z,0.00
2023-01-30T03:50:12.452Z,0.00
2023-01-30T03:51:07.454Z,0.00
2023-01-30T03:52:07.406Z,0.00
2023-01-30T03:53:07.396Z,0.00
2023-01-30T03:54:07.382Z,0.00
2023-01-30T03:55:07.369Z,0.00
2023-01-30T03:56:07.407Z,0.00
2023-01-30T03:57:07.354Z,0.00
2023-01-30T03:58:07.383Z,0.00
2023-01-30T03:59:07.326Z,0.00
2023-01-30T04:00:07.341Z,0.00
2023-01-30T04:01:12.361Z,0.00
2023-01-30T04:02:07.364Z,0.00
2023-01-30T04:03:07.317Z,0.00
2023-01-30T04:04:07.283Z,0.00
2023-01-30T04:05:07.260Z,0.00
2023-01-30T04:06:07.263Z,0.00
2023-01-30T04:07:07.238Z,0.00
2023-01-30T04:08:07.253Z,0.00
2023-01-30T04:09:07.217Z,0.00
2023-01-30T04:10:07.208Z,0.00
2023-01-30T04:11:07.255Z,0.00
2023-01-30T04:12:12.208Z,0.00
2023-01-30T04:13:07.219Z,0.00
2023-01-30T04:14:07.197Z,0.00
2023-01-30T04:15:07.151Z,0.00
2023-01-30T04:16:07.179Z,0.00
2023-01-30T04:17:07.144Z,0.00
2023-01-30T04:18:07.119Z,0.00
2023-01-30T04:19:07.137Z,0.00
2023-01-30T04:20:07.107Z,0.00
2023-01-30T04:21:07.101Z,0.00
2023-01-30T04:22:07.076Z,0.00
2023-01-30T04:23:12.104Z,0.00
2023-01-30T04:24:07.059Z,0.00
2023-01-30T04:25:07.044Z,0.00
2023-01-30T04:26:07.047Z,0.00
2023-01-30T04:27:07.022Z,0.00
2023-01-30T04:28:07.022Z,0.00
2023-01-30T04:29:07.004Z,0.00
2023-01-30T04:30:07.000Z,0.00
2023-01-30T04:31:07.036Z,0.00
2023-01-30T04:32:07.004Z,0.00
2023-01-30T04:33:06.959Z,0.00
2023-01-30T04:34:11.977Z,0.00
2023-01-30T04:35:06.936Z,0.00
2023-01-30T04:36:06.963Z,0.00
2023-01-30T04:37:06.913Z,0.00
2023-01-30T04:38:06.902Z,0.00
2023-01-30T04:39:06.893Z,0.00
2023-01-30T04:40:06.880Z,0.00
2023-01-30T04:41:06.887Z,0.00
2023-01-30T04:42:06.863Z,0.00
2023-01-30T04:43:06.845Z,0.00
2023-01-30T04:44:06.837Z,0.00
2023-01-30T04:45:11.853Z,0.00
2023-01-30T04:46:06.816Z,0.00
2023-01-30T04:47:06.810Z,0.00
2023-01-30T04:48:06.811Z,0.00
2023-01-30T04:49:06.783Z,0.00
2023-01-30T04:50:06.782Z,0.00
2023-01-30T04:51:06.779Z,0.00
2023-01-30T04:52:06.780Z,0.00
2023-01-30T04:53:06.736Z,0.00
2023-01-30T04:54:06.729Z,0.00
2023-01-30T04:55:06.717Z,0.00
2023-01-30T04:56:11.733Z,0.00
2023-01-30T04:57:06.707Z,0.00
2023-01-30T04:58:06.684Z,0.00
2023-01-30T04:59:06.691Z,0.00
2023-01-30T05:00:06.660Z,0.00
2023-01-30T05:01:06.678Z,0.00
2023-01-30T05:02:06.723Z,0.00
2023-01-30T05:03:06.652Z,0.00
2023-01-30T05:04:06.638Z,0.00
2023-01-30T05:05:06.607Z,0.00
2023-01-30T05:06:06.599Z,0.00
2023-01-30T05:07:11.620Z,0.00
2023-01-30T05:08:06.577Z,0.00
2023-01-30T05:09:06.569Z,0.00
2023-01-30T05:10:06.559Z,0.00
2023-01-30T05:11:06.545Z,0.00
2023-01-30T05:12:06.559Z,0.00
2023-01-30T05:13:06.531Z,0.00
2023-01-30T05:14:06.507Z,0.00
2023-01-30T05:15:06.501Z,0.00
2023-01-30T05:16:06.522Z,0.00
2023-01-30T05:17:06.506Z,0.00
2023-01-30T05:18:11.486Z,0.00
2023-01-30T05:19:06.455Z,0.00
2023-01-30T05:20:06.463Z,0.00
2023-01-30T05:21:06.432Z,0.00
2023-01-30T05:22:06.430Z,0.00
2023-01-30T05:23:06.409Z,0.00
2023-01-30T05:24:06.402Z,0.00
2023-01-30T05:25:06.415Z,0.00
2023-01-30T05:26:06.383Z,0.00
2023-01-30T05:27:06.384Z,0.00
2023-01-30T05:28:06.358Z,0.00
2023-01-30T05:29:11.413Z,0.00
2023-01-30T05:30:06.345Z,0.00
2023-01-30T05:31:06.496Z,0.00
2023-01-30T05:32:06.325Z,0.00
2023-01-30T05:33:06.300Z,0.00
2023-01-30T05:34:06.290Z,0.00
2023-01-30T05:35:06.298Z,0.00
2023-01-30T05:36:06.289Z,0.00
2023-01-30T05:37:06.269Z,0.00
2023-01-30T05:38:06.245Z,0.00
2023-01-30T05:39:06.237Z,0.00
2023-01-30T05:40:11.245Z,0.00
2023-01-30T05:41:06.214Z,0.00
2023-01-30T05:42:06.212Z,0.00
2023-01-30T05:43:06.191Z,0.00
2023-01-30T05:44:06.200Z,0.00
2023-01-30T05:45:06.171Z,0.00
2023-01-30T05:46:06.157Z,0.00
2023-01-30T05:47:06.161Z,0.00
2023-01-30T05:48:06.137Z,0.00
2023-01-30T05:49:06.126Z,0.00
2023-01-30T05:50:06.146Z,0.00
2023-01-30T05:51:11.144Z,0.00
2023-01-30T05:52:06.104Z,0.00
2023-01-30T05:53:06.080Z,0.00
2023-01-30T05:54:06.069Z,0.00
2023-01-30T05:55:06.077Z,0.00
2023-01-30T05:56:06.058Z,0.00
2023-01-30T05:57:06.061Z,0.00
2023-01-30T05:58:06.033Z,0.00
2023-01-30T05:59:06.017Z,0.00
2023-01-30T06:00:06.014Z,0.00
2023-01-30T06:01:06.005Z,0.00
2023-01-30T06:02:11.923Z,0.00
2023-01-30T06:03:05.978Z,0.00
2023-01-30T06:04:06.010Z,0.00
2023-01-30T06:05:05.952Z,0.00
2023-01-30T06:06:05.958Z,0.00
2023-01-30T06:07:05.984Z,0.00
2023-01-30T06:08:05.923Z,0.00
2023-01-30T06:09:05.918Z,0.00
2023-01-30T06:10:05.895Z,0.00
2023-01-30T06:11:05.888Z,0.00
2023-01-30T06:12:05.890Z,0.00
2023-01-30T06:13:10.904Z,0.00
2023-01-30T06:14:05.856Z,0.00
2023-01-30T06:15:05.846Z,0.00
2023-01-30T06:16:05.913Z,0.00
2023-01-30T06:17:05.917Z,0.00
2023-01-30T06:18:05.819Z,0.00
2023-01-30T06:19:05.808Z,0.00
2023-01-30T06:20:05.807Z,0.00
2023-01-30T06:21:05.791Z,0.00
2023-01-30T06:22:05.776Z,0.00
2023-01-30T06:23:05.778Z,0.00
2023-01-30T06:24:10.773Z,0.00
2023-01-30T06:25:05.733Z,0.00
2023-01-30T06:26:08.130Z,0.00
2023-01-30T06:27:05.734Z,0.00
2023-01-30T06:28:05.698Z,0.00
2023-01-30T06:29:05.709Z,0.00
2023-01-30T06:30:05.689Z,0.00
2023-01-30T06:31:05.831Z,0.00
2023-01-30T06:32:05.668Z,0.00
2023-01-30T06:33:05.649Z,0.00
2023-01-30T06:34:05.633Z,0.00
2023-01-30T06:35:10.650Z,0.00
2023-01-30T06:36:05.650Z,0.00
2023-01-30T06:37:05.611Z,0.00
2023-01-30T06:38:05.594Z,0.00
2023-01-30T06:39:05.608Z,4.00
2023-01-30T06:40:05.607Z,4.00
2023-01-30T06:41:05.581Z,0.00
2023-01-30T06:42:05.570Z,4.00
2023-01-30T06:43:05.540Z,4.00
2023-01-30T06:44:05.527Z,4.00
2023-01-30T06:45:05.515Z,4.00
2023-01-30T06:46:10.603Z,8.00
2023-01-30T06:47:05.518Z,12.00
2023-01-30T06:48:05.504Z,20.00
2023-01-30T06:49:05.473Z,24.00
2023-01-30T06:50:05.472Z,28.00
2023-01-30T06:51:05.451Z,36.00
2023-01-30T06:52:05.447Z,32.00
2023-01-30T06:53:05.437Z,36.00
2023-01-30T06:54:05.425Z,40.00
2023-01-30T06:55:05.425Z,40.00
2023-01-30T06:56:05.417Z,44.00
2023-01-30T06:57:10.416Z,48.00
2023-01-30T06:58:05.379Z,56.00
2023-01-30T06:59:05.378Z,60.00
2023-01-30T07:00:05.361Z,68.00
2023-01-30T07:01:05.341Z,72.00
2023-01-30T07:02:05.469Z,76.00
2023-01-30T07:03:05.319Z,80.00
2023-01-30T07:04:05.368Z,92.00
2023-01-30T07:05:05.305Z,104.00
2023-01-30T07:06:05.287Z,116.00
2023-01-30T07:07:06.951Z,124.00
2023-01-30T07:08:10.288Z,128.00
2023-01-30T07:09:05.255Z,136.00
2023-01-30T07:10:08.651Z,144.00
2023-01-30T07:11:05.258Z,160.00
2023-01-30T07:12:05.224Z,164.00
2023-01-30T07:13:05.662Z,184.00
2023-01-30T07:14:06.420Z,188.00
2023-01-30T07:15:05.210Z,180.00
2023-01-30T07:16:05.177Z,176.00
2023-01-30T07:17:05.306Z,192.00
2023-01-30T07:18:05.169Z,204.00
2023-01-30T07:19:10.168Z,232.00
2023-01-30T07:20:05.144Z,256.00
2023-01-30T07:21:05.136Z,224.00
2023-01-30T07:22:05.113Z,264.00
2023-01-30T07:23:05.114Z,264.00
2023-01-30T07:24:05.091Z,244.00
2023-01-30T07:25:05.083Z,252.00
2023-01-30T07:26:05.069Z,248.00
2023-01-30T07:27:05.097Z,268.00
2023-01-30T07:28:05.079Z,276.00
2023-01-30T07:29:05.041Z,280.00
2023-01-30T07:30:10.048Z,316.00
2023-01-30T07:31:05.013Z,324.00
2023-01-30T07:32:05.002Z,364.00
2023-01-30T07:33:05.001Z,392.00
2023-01-30T07:34:04.981Z,444.00
2023-01-30T07:35:06.066Z,432.00
2023-01-30T07:36:04.958Z,408.00
2023-01-30T07:37:04.952Z,536.00
2023-01-30T07:38:04.953Z,472.00
2023-01-30T07:39:04.926Z,444.00
2023-01-30T07:40:04.916Z,544.00
2023-01-30T07:41:09.927Z,452.00
2023-01-30T07:42:04.891Z,344.00
2023-01-30T07:43:04.941Z,344.00
2023-01-30T07:44:04.878Z,336.00
2023-01-30T07:45:04.862Z,348.00
2023-01-30T07:46:04.866Z,388.00
2023-01-30T07:47:04.871Z,292.00
2023-01-30T07:48:04.836Z,224.00
2023-01-30T07:49:04.822Z,276.00
2023-01-30T07:50:04.814Z,256.00
2023-01-30T07:51:04.798Z,256.00
2023-01-30T07:52:09.808Z,296.00
2023-01-30T07:53:04.784Z,248.00
2023-01-30T07:54:04.760Z,240.00
2023-01-30T07:55:04.776Z,272.00
2023-01-30T07:56:04.747Z,268.00
2023-01-30T07:57:04.737Z,256.00
2023-01-30T07:58:04.734Z,308.00
2023-01-30T07:59:04.732Z,340.00
2023-01-30T08:00:04.696Z,420.00
2023-01-30T08:01:04.720Z,464.00
2023-01-30T08:02:04.679Z,468.00
2023-01-30T08:03:09.696Z,600.00
2023-01-30T08:04:04.673Z,676.00
2023-01-30T08:05:06.269Z,908.00
2023-01-30T08:06:04.639Z,780.00
2023-01-30T08:07:04.625Z,728.00
2023-01-30T08:08:04.628Z,836.00
2023-01-30T08:09:04.599Z,812.00
2023-01-30T08:10:04.667Z,724.00
2023-01-30T08:11:04.576Z,636.00
2023-01-30T08:12:04.567Z,608.00
2023-01-30T08:13:04.574Z,540.00
2023-01-30T08:14:09.580Z,532.00
2023-01-30T08:15:04.534Z,528.00
2023-01-30T08:16:04.523Z,592.00
2023-01-30T08:17:04.512Z,592.00
2023-01-30T08:18:04.511Z,532.00
2023-01-30T08:19:04.491Z,564.00
2023-01-30T08:20:04.477Z,624.00
2023-01-30T08:21:04.469Z,576.00
2023-01-30T08:22:04.479Z,548.00
2023-01-30T08:23:04.475Z,584.00
2023-01-30T08:24:04.439Z,512.00
2023-01-30T08:25:09.457Z,640.00
2023-01-30T08:26:04.418Z,636.00
2023-01-30T08:27:04.405Z,824.00
2023-01-30T08:28:04.411Z,812.00
2023-01-30T08:29:04.388Z,712.00
2023-01-30T08:30:04.398Z,692.00
2023-01-30T08:31:04.497Z,820.00
2023-01-30T08:32:04.347Z,684.00
2023-01-30T08:33:04.351Z,792.00
2023-01-30T08:34:04.347Z,800.00
2023-01-30T08:35:04.315Z,788.00
2023-01-30T08:36:09.331Z,836.00
2023-01-30T08:37:04.294Z,948.00
2023-01-30T08:38:07.470Z,776.00
2023-01-30T08:39:04.274Z,892.00
2023-01-30T08:40:04.260Z,952.00
2023-01-30T08:41:04.249Z,848.00
2023-01-30T08:42:04.255Z,816.00
2023-01-30T08:43:04.245Z,888.00
2023-01-30T08:44:04.223Z,712.00
2023-01-30T08:45:04.235Z,820.00
2023-01-30T08:46:04.320Z,984.00
2023-01-30T08:47:09.207Z,760.00
2023-01-30T08:48:04.183Z,960.00
2023-01-30T08:49:04.163Z,920.00
2023-01-30T08:50:04.162Z,952.00
2023-01-30T08:51:04.144Z,924.00
2023-01-30T08:52:04.128Z,740.00
2023-01-30T08:53:04.131Z,924.00
2023-01-30T08:54:04.116Z,768.00
2023-01-30T08:55:04.097Z,620.00
2023-01-30T08:56:04.084Z,692.00
2023-01-30T08:57:04.078Z,720.00
2023-01-30T08:58:09.098Z,680.00
2023-01-30T08:59:04.066Z,812.00
2023-01-30T09:00:04.044Z,680.00
2023-01-30T09:01:04.103Z,832.00
2023-01-30T09:02:04.056Z,732.00
2023-01-30T09:03:04.023Z,712.00
2023-01-30T09:04:03.999Z,824.00
2023-01-30T09:05:03.990Z,780.00
2023-01-30T09:06:03.977Z,808.00
2023-01-30T09:07:03.967Z,872.00
2023-01-30T09:08:03.965Z,820.00
2023-01-30T09:09:08.965Z,792.00
2023-01-30T09:10:03.940Z,924.00
2023-01-30T09:11:03.939Z,928.00
2023-01-30T09:12:03.917Z,836.00
2023-01-30T09:13:03.909Z,928.00
2023-01-30T09:14:03.897Z,864.00
2023-01-30T09:15:03.887Z,888.00
2023-01-30T09:16:03.868Z,1104.00
2023-01-30T09:17:03.855Z,1332.00
2023-01-30T09:18:03.878Z,1196.00
2023-01-30T09:19:03.854Z,1108.00
2023-01-30T09:20:08.848Z,1468.00
2023-01-30T09:21:03.833Z,1488.00
2023-01-30T09:22:03.804Z,1564.00
2023-01-30T09:23:03.798Z,1556.00
2023-01-30T09:24:03.782Z,1724.00
2023-01-30T09:25:03.772Z,1700.00
2023-01-30T09:26:03.759Z,2036.00
2023-01-30T09:27:03.745Z,1960.00
2023-01-30T09:28:03.750Z,1960.00
2023-01-30T09:29:03.724Z,2216.00
2023-01-30T09:30:03.723Z,2044.00
2023-01-30T09:31:08.870Z,1852.00
2023-01-30T09:32:03.693Z,2300.00
2023-01-30T09:33:03.692Z,2740.00
2023-01-30T09:34:03.700Z,2968.00
2023-01-30T09:35:03.665Z,2580.00
2023-01-30T09:36:03.652Z,2156.00
2023-01-30T09:37:05.029Z,2416.00
2023-01-30T09:38:03.641Z,2668.00
2023-01-30T09:39:03.622Z,2776.00
2023-01-30T09:40:03.607Z,2720.00
2023-01-30T09:41:03.695Z,2016.00
2023-01-30T09:42:08.605Z,3464.00
2023-01-30T09:43:03.582Z,3240.00
2023-01-30T09:44:03.569Z,3080.00
2023-01-30T09:45:03.560Z,2632.00
2023-01-30T09:46:03.623Z,3196.00
2023-01-30T09:47:03.528Z,3692.00
2023-01-30T09:48:03.547Z,3684.00
2023-01-30T09:49:03.517Z,4608.00
2023-01-30T09:50:03.529Z,4124.00
2023-01-30T09:51:03.556Z,4784.00
2023-01-30T09:52:03.472Z,5440.00
2023-01-30T09:53:08.498Z,5088.00
2023-01-30T09:54:03.451Z,4772.00
2023-01-30T09:55:03.456Z,4048.00
2023-01-30T09:56:03.447Z,4108.00
2023-01-30T09:57:03.416Z,4000.00
2023-01-30T09:58:03.406Z,3940.00
2023-01-30T09:59:03.435Z,4252.00
2023-01-30T10:00:03.379Z,4992.00
2023-01-30T10:01:03.371Z,4840.00
2023-01-30T10:02:03.364Z,5140.00
2023-01-30T10:03:03.429Z,3768.00
2023-01-30T10:04:08.414Z,4180.00
2023-01-30T10:05:03.359Z,4052.00
2023-01-30T10:06:03.336Z,2792.00
2023-01-30T10:07:03.304Z,3012.00
2023-01-30T10:08:03.295Z,2604.00
2023-01-30T10:09:03.294Z,2556.00
2023-01-30T10:10:03.281Z,3020.00
2023-01-30T10:11:10.972Z,3988.00
2023-01-30T10:12:04.248Z,3964.00
2023-01-30T10:13:03.237Z,3884.00
2023-01-30T10:14:03.241Z,3660.00
2023-01-30T10:15:08.240Z,3556.00
2023-01-30T10:16:03.409Z,3100.00
2023-01-30T10:17:03.192Z,3436.00
2023-01-30T10:18:03.180Z,3100.00
2023-01-30T10:19:03.262Z,2824.00
2023-01-30T10:20:03.160Z,2932.00
2023-01-30T10:21:03.151Z,3356.00
2023-01-30T10:22:03.157Z,3196.00
2023-01-30T10:23:03.131Z,3244.00
2023-01-30T10:24:03.164Z,2716.00
2023-01-30T10:25:03.109Z,2828.00
2023-01-30T10:26:08.138Z,2344.00
2023-01-30T10:27:04.827Z,2212.00
2023-01-30T10:28:03.072Z,2260.00
2023-01-30T10:29:07.639Z,2240.00
2023-01-30T10:30:04.057Z,2600.00
2023-01-30T10:31:03.188Z,2104.00
2023-01-30T10:32:03.033Z,1980.00
2023-01-30T10:33:03.018Z,1972.00
2023-01-30T10:34:03.022Z,2144.00
2023-01-30T10:35:02.989Z,2176.00
2023-01-30T10:36:02.981Z,2152.00
2023-01-30T10:37:08.013Z,2168.00
2023-01-30T10:38:02.962Z,2536.00
2023-01-30T10:39:02.950Z,2496.00
2023-01-30T10:40:02.965Z,1896.00
2023-01-30T10:41:02.947Z,2092.00
2023-01-30T10:42:02.918Z,1960.00
2023-01-30T10:43:02.903Z,1984.00
2023-01-30T10:44:02.896Z,2044.00
2023-01-30T10:45:02.893Z,1720.00
2023-01-30T10:46:02.874Z,1880.00
2023-01-30T10:47:02.857Z,1784.00
2023-01-30T10:48:07.868Z,1868.00
2023-01-30T10:49:02.896Z,2196.00
2023-01-30T10:50:02.851Z,2588.00
2023-01-30T10:51:02.811Z,2408.00
2023-01-30T10:52:02.819Z,2384.00
2023-01-30T10:53:02.815Z,2380.00
2023-01-30T10:54:02.793Z,2264.00
2023-01-30T10:55:02.823Z,2664.00
2023-01-30T10:56:02.759Z,2076.00
2023-01-30T10:57:02.743Z,2076.00
2023-01-30T10:58:02.742Z,2692.00
2023-01-30T10:59:07.777Z,1716.00
2023-01-30T11:00:02.726Z,1268.00
2023-01-30T11:01:02.701Z,1296.00
2023-01-30T11:02:02.818Z,1348.00
2023-01-30T11:03:02.826Z,1216.00
2023-01-30T11:04:02.673Z,1324.00
2023-01-30T11:05:02.655Z,1584.00
2023-01-30T11:06:02.686Z,1556.00
2023-01-30T11:07:02.638Z,1436.00
2023-01-30T11:08:02.626Z,1512.00
2023-01-30T11:09:02.640Z,1904.00
2023-01-30T11:10:07.647Z,2360.00
2023-01-30T11:11:02.588Z,2996.00
2023-01-30T11:12:02.588Z,2720.00
2023-01-30T11:13:02.573Z,2404.00
2023-01-30T11:14:02.566Z,2020.00
2023-01-30T11:15:02.544Z,2416.00
2023-01-30T11:16:02.601Z,2008.00
2023-01-30T11:17:02.540Z,2216.00
2023-01-30T11:18:25.323Z,2044.00
2023-01-30T11:19:21.540Z,2004.00
2023-01-30T11:20:03.496Z,1744.00
2023-01-30T11:21:07.512Z,1756.00
2023-01-30T11:22:02.468Z,1752.00
2023-01-30T11:23:02.465Z,1720.00
2023-01-30T11:24:02.447Z,1928.00
2023-01-30T11:25:02.461Z,2552.00
2023-01-30T11:26:11.301Z,3356.00
2023-01-30T11:27:03.472Z,3136.00
2023-01-30T11:28:02.414Z,3404.00
2023-01-30T11:29:02.396Z,3300.00
2023-01-30T11:30:02.397Z,2972.00
2023-01-30T11:31:02.390Z,2516.00
2023-01-30T11:32:07.392Z,2248.00
2023-01-30T11:33:02.353Z,2532.00
2023-01-30T11:34:02.356Z,2324.00
2023-01-30T11:35:02.318Z,2296.00
2023-01-30T11:36:03.781Z,1584.00
2023-01-30T11:37:02.325Z,1500.00
2023-01-30T11:38:02.291Z,1744.00
2023-01-30T11:39:02.304Z,1636.00
2023-01-30T11:40:02.278Z,1880.00
2023-01-30T11:41:02.302Z,1988.00
2023-01-30T11:42:02.258Z,2508.00
2023-01-30T11:43:07.256Z,1976.00
2023-01-30T11:44:02.221Z,2136.00
2023-01-30T11:45:17.239Z,2384.00
2023-01-30T11:46:03.304Z,1968.00
2023-01-30T11:47:02.199Z,1788.00
2023-01-30T11:48:04.259Z,1700.00
2023-01-30T11:49:11.108Z,1628.00
2023-01-30T11:50:10.013Z,1576.00
2023-01-30T11:51:03.153Z,1244.00
2023-01-30T11:52:02.144Z,1232.00
2023-01-30T11:53:02.127Z,1068.00
2023-01-30T11:54:07.135Z,1236.00
2023-01-30T11:55:02.117Z,1688.00
2023-01-30T11:56:06.524Z,1464.00
2023-01-30T11:57:03.111Z,1516.00
2023-01-30T11:58:02.094Z,2172.00
2023-01-30T11:59:02.074Z,2380.00
2023-01-30T12:00:02.109Z,2544.00
2023-01-30T12:01:02.037Z,2924.00
2023-01-30T12:02:02.056Z,2716.00
2023-01-30T12:03:02.060Z,2640.00
2023-01-30T12:04:02.042Z,2816.00
2023-01-30T12:05:07.019Z,2688.00
2023-01-30T12:06:01.984Z,2356.00
2023-01-30T12:07:01.994Z,2708.00
2023-01-30T12:08:01.955Z,2780.00
2023-01-30T12:09:01.963Z,3212.00
2023-01-30T12:10:01.945Z,3416.00
2023-01-30T12:11:01.921Z,4280.00
2023-01-30T12:12:01.932Z,6944.00
2023-01-30T12:13:01.932Z,6460.00
2023-01-30T12:14:01.891Z,5460.00
2023-01-30T12:15:01.876Z,4764.00
2023-01-30T12:16:06.930Z,4904.00
2023-01-30T12:17:01.871Z,3180.00
2023-01-30T12:18:01.874Z,2148.00
2023-01-30T12:19:01.835Z,3920.00
2023-01-30T12:20:01.831Z,3668.00
2023-01-30T12:21:01.807Z,3860.00
2023-01-30T12:22:01.803Z,5508.00
2023-01-30T12:23:01.825Z,6732.00
2023-01-30T12:24:01.789Z,5708.00
2023-01-30T12:25:01.768Z,5084.00
2023-01-30T12:26:01.760Z,3416.00
2023-01-30T12:27:06.766Z,3644.00
2023-01-30T12:28:01.743Z,3348.00
2023-01-30T12:29:01.740Z,3844.00
2023-01-30T12:30:01.724Z,4536.00
2023-01-30T12:31:01.718Z,4544.00
2023-01-30T12:32:01.733Z,3440.00
2023-01-30T12:34:01.680Z,3448.00
2023-01-30T12:35:01.655Z,2940.00
2023-01-30T12:36:01.647Z,3484.00
2023-01-30T12:37:01.631Z,4056.00
2023-01-30T12:38:06.655Z,4244.00
2023-01-30T12:39:01.608Z,3548.00
2023-01-30T12:40:01.598Z,2988.00
2023-01-30T12:41:01.588Z,3032.00
2023-01-30T12:42:01.586Z,3288.00
2023-01-30T12:43:01.648Z,3236.00
2023-01-30T12:44:01.573Z,3024.00
2023-01-30T12:45:01.568Z,2892.00
2023-01-30T12:46:01.558Z,3324.00
2023-01-30T12:47:01.558Z,2948.00
2023-01-30T12:48:02.140Z,4916.00
2023-01-30T12:49:11.703Z,5364.00
2023-01-30T12:50:02.527Z,4272.00
2023-01-30T12:51:01.479Z,3016.00
2023-01-30T12:52:01.473Z,3540.00
2023-01-30T12:53:01.453Z,3428.00
2023-01-30T12:54:01.455Z,2700.00
2023-01-30T12:55:01.430Z,4248.00
2023-01-30T12:56:01.432Z,5236.00
2023-01-30T12:57:01.407Z,5988.00
2023-01-30T12:58:01.411Z,5076.00
2023-01-30T12:59:01.412Z,4052.00
2023-01-30T13:00:06.433Z,3396.00
2023-01-30T13:01:01.364Z,3096.00
2023-01-30T13:02:01.420Z,3092.00
2023-01-30T13:03:01.504Z,3264.00
2023-01-30T13:04:01.342Z,3452.00
2023-01-30T13:05:04.717Z,3260.00
2023-01-30T13:06:01.316Z,4160.00
2023-01-30T13:07:01.298Z,3052.00
2023-01-30T13:08:01.293Z,3644.00
2023-01-30T13:09:01.284Z,2852.00
2023-01-30T13:10:01.270Z,2424.00
2023-01-30T13:11:06.279Z,2448.00
2023-01-30T13:12:01.244Z,2476.00
2023-01-30T13:13:01.265Z,2296.00
2023-01-30T13:14:01.240Z,3148.00
2023-01-30T13:15:01.225Z,2996.00
2023-01-30T13:16:01.294Z,4028.00
2023-01-30T13:17:01.189Z,3708.00
2023-01-30T13:18:01.183Z,2120.00
2023-01-30T13:19:01.173Z,1896.00
2023-01-30T13:20:01.158Z,2192.00
2023-01-30T13:21:01.145Z,2132.00
2023-01-30T13:22:06.156Z,2184.00
2023-01-30T13:23:01.119Z,2840.00
2023-01-30T13:24:01.178Z,2736.00
2023-01-30T13:25:01.097Z,2272.00
2023-01-30T13:26:01.100Z,1984.00
2023-01-30T13:27:01.082Z,2016.00
2023-01-30T13:28:01.071Z,1596.00
2023-01-30T13:29:01.065Z,1232.00
2023-01-30T13:30:01.063Z,1196.00
2023-01-30T13:31:01.110Z,1624.00
2023-01-30T13:32:01.261Z,1992.00
2023-01-30T13:33:06.068Z,2436.00
2023-01-30T13:34:00.998Z,2960.00
2023-01-30T13:35:01.001Z,3632.00
2023-01-30T13:36:00.978Z,4212.00
2023-01-30T13:37:00.971Z,4548.00
2023-01-30T13:38:00.954Z,4380.00
2023-01-30T13:39:00.951Z,3624.00
2023-01-30T13:40:01.007Z,4596.00
2023-01-30T13:41:00.928Z,4048.00
2023-01-30T13:42:00.916Z,3428.00
2023-01-30T13:43:00.903Z,3064.00
2023-01-30T13:44:05.910Z,2772.00
2023-01-30T13:45:00.884Z,2868.00
2023-01-30T13:46:00.864Z,2700.00
2023-01-30T13:47:00.971Z,1888.00
2023-01-30T13:48:00.872Z,1996.00
2023-01-30T13:49:00.833Z,2248.00
2023-01-30T13:50:00.838Z,2048.00
2023-01-30T13:51:00.819Z,2048.00
2023-01-30T13:52:00.825Z,2208.00
2023-01-30T13:53:00.795Z,2124.00
2023-01-30T13:54:00.781Z,2644.00
2023-01-30T13:55:05.855Z,4032.00
2023-01-30T13:56:00.796Z,5368.00
2023-01-30T13:57:00.744Z,3580.00
2023-01-30T13:58:00.744Z,2332.00
2023-01-30T13:59:00.721Z,1828.00
2023-01-30T14:00:00.729Z,2204.00
2023-01-30T14:01:00.909Z,3100.00
2023-01-30T14:02:00.734Z,3292.00
2023-01-30T14:03:00.678Z,2892.00
2023-01-30T14:04:00.701Z,3068.00
2023-01-30T14:05:00.685Z,3140.00
2023-01-30T14:06:05.667Z,2840.00
2023-01-30T14:07:00.635Z,2816.00